This is the latest recevied weather packets stored in our database for station/object NU3S-7. If no packets are shown the sender has not sent any weather packets the latest 10 day(s).
| Time | Temp. | Humidity | Pressure | Rain* | Wind** | Luminosity | Snow |
|---|---|---|---|---|---|---|---|
| 1777669263 | 8.33° C | 99% | 1011.7 hPa | 0.51 mm | - | - | - |
| 1777668663 | 8.89° C | 99% | 1011.7 hPa | 0.25 mm | - | - | - |
| 1777668062 | 8.89° C | 98% | 1011.7 hPa | 0.25 mm | - | - | - |
| 1777667461 | 8.89° C | 98% | 1011.5 hPa | 0.25 mm | - | - | - |
| 1777666861 | 8.89° C | 97% | 1011.4 hPa | 0.25 mm | - | - | - |
| 1777666261 | 8.89° C | 96% | 1011.5 hPa | 0.25 mm | - | - | - |
| 1777664459 | 10° C | 94% | 1011.4 hPa | 0 mm | - | - | - |
| 1777663258 | 10° C | 91% | 1011.5 hPa | 0 mm | - | - | - |
| 1777662658 | 10° C | 89% | 1011.5 hPa | 0 mm | - | - | - |
| 1777660257 | 11.11° C | 84% | 1011.5 hPa | 0 mm | - | - | - |
| 1777659656 | 11.11° C | 82% | 1011.5 hPa | 0 mm | - | - | - |
| 1777658453 | 11.67° C | 82% | 1011.3 hPa | 0 mm | - | - | - |
| 1777657853 | 12.22° C | 85% | 1011.1 hPa | 0 mm | - | - | - |
| 1777656051 | 11.11° C | 84% | 1011.6 hPa | 0 mm | - | - | - |
| 1777655451 | 11.11° C | 81% | 1011.6 hPa | 0 mm | - | - | - |
| 1777654850 | 11.11° C | 80% | 1011.5 hPa | 0 mm | - | - | - |
| 1777652447 | 12.22° C | 77% | 1011.7 hPa | 0 mm | - | - | - |
| 1777645242 | 10.56° C | 87% | 1012.8 hPa | 0 mm | - | - | - |
| 1777644642 | 10.56° C | 91% | 1012.9 hPa | 0 mm | - | - | - |
| 1777642240 | 8.33° C | 98% | 1013.1 hPa | 0 mm | - | - | - |
| 1777641039 | 7.22° C | 99% | 1013.4 hPa | 0 mm | - | - | - |
| 1777638636 | 6.67° C | 100% | 1013.5 hPa | 0 mm | - | - | - |
| 1777638034 | 6.67° C | 100% | 1013.5 hPa | 0 mm | - | - | - |
| 1777637433 | 5.56° C | 100% | 1013.7 hPa | 0 mm | - | - | - |
| 1777636833 | 5° C | 100% | 1013.7 hPa | 0 mm | - | - | - |
* Rain since midnight (hover to see other rain measurements)
** Current wind speed in m/s (hover to see current wind gust speed)